Time;durP1;ratioP1;P1;durP2;ratioP2;P2;SDS_P1;SDS_P2;PMS_P1;PMS_P2;Temp;Humidity;BMP_temperature;BMP_pressure;BME280_temperature;BME280_humidity;BME280_pressure;Samples;Min_cycle;Max_cycle;Signal;HPM_P1;HPM_P2
2023/07/26 00:02:15;;;;;;;2.35;1.52;;;13.90;99.90;;;;;;5099938;27;45205;-70
2023/07/26 00:04:42;;;;;;;4.80;1.40;;;13.90;99.90;;;;;;5104488;27;45095;-70
2023/07/26 00:07:09;;;;;;;2.80;1.52;;;13.80;99.90;;;;;;5103098;27;48374;-69
2023/07/26 00:09:36;;;;;;;1.83;1.50;;;13.90;99.90;;;;;;5098809;27;45222;-69
2023/07/26 00:12:04;;;;;;;3.17;1.42;;;13.90;99.90;;;;;;5101517;27;45268;-70
2023/07/26 00:14:32;;;;;;;3.75;1.52;;;13.90;99.90;;;;;;5104649;27;45243;-70
2023/07/26 00:16:59;;;;;;;6.88;1.58;;;14.00;99.90;;;;;;5104504;27;46588;-69
2023/07/26 00:19:25;;;;;;;5.03;1.75;;;14.00;99.90;;;;;;5102765;27;45188;-70
2023/07/26 00:21:52;;;;;;;5.70;1.85;;;14.10;99.90;;;;;;5104323;27;45221;-70
2023/07/26 00:24:19;;;;;;;3.38;1.33;;;14.40;99.90;;;;;;5114822;27;45304;-69
2023/07/26 00:26:46;;;;;;;3.88;1.40;;;14.60;99.90;;;;;;5107424;27;47517;-70
2023/07/26 00:29:12;;;;;;;5.75;1.67;;;14.60;99.90;;;;;;5115804;27;45178;-70
2023/07/26 00:31:42;;;;;;;5.60;1.70;;;14.60;99.90;;;;;;5122952;27;45223;-69
2023/07/26 00:34:08;;;;;;;4.53;1.75;;;14.60;99.90;;;;;;5106252;27;45442;-69
2023/07/26 00:36:35;;;;;;;5.25;1.67;;;14.70;99.90;;;;;;5118215;27;46236;-69
2023/07/26 00:39:03;;;;;;;3.85;1.92;;;14.70;99.90;;;;;;5109217;27;45320;-69
2023/07/26 00:41:30;;;;;;;7.10;1.70;;;14.70;99.90;;;;;;5113866;27;45184;-70
2023/07/26 00:43:56;;;;;;;10.73;1.85;;;14.70;99.90;;;;;;5108220;27;45347;-70
2023/07/26 00:46:24;;;;;;;4.20;1.83;;;14.60;99.90;;;;;;5106962;27;46246;-69
2023/07/26 00:48:52;;;;;;;7.78;1.38;;;14.60;99.90;;;;;;5105533;27;45282;-70
2023/07/26 00:51:21;;;;;;;6.35;1.75;;;14.60;99.90;;;;;;5100025;27;45126;-70
2023/07/26 00:53:48;;;;;;;9.48;1.88;;;14.60;99.90;;;;;;5111901;27;45280;-70
2023/07/26 00:56:15;;;;;;;7.15;1.65;;;14.70;99.90;;;;;;5111949;27;47323;-70
2023/07/26 00:58:42;;;;;;;12.77;1.60;;;14.70;99.90;;;;;;5105413;27;45119;-70
2023/07/26 01:01:08;;;;;;;4.88;1.52;;;14.60;99.90;;;;;;5103644;27;45208;-69
2023/07/26 01:03:35;;;;;;;14.93;1.90;;;14.50;99.90;;;;;;5104808;27;45315;-70
2023/07/26 01:06:14;;;;;;;5.15;1.45;;;14.40;99.90;;;;;;5103377;27;48000;-70
2023/07/26 01:08:51;;;;;;;4.57;1.45;;;14.30;99.90;;;;;;5103664;27;45246;-70
2023/07/26 01:11:25;;;;;;;4.18;1.50;;;14.20;99.90;;;;;;5100316;27;45204;-69
2023/07/26 01:13:57;;;;;;;4.75;2.22;;;14.20;99.90;;;;;;5103194;27;45306;-70
2023/07/26 01:16:24;;;;;;;4.25;1.80;;;14.10;99.90;;;;;;5108863;27;47921;-69
2023/07/26 01:18:51;;;;;;;7.22;1.60;;;14.20;99.90;;;;;;5106511;27;45319;-69
2023/07/26 01:21:19;;;;;;;11.07;1.90;;;14.20;99.90;;;;;;5106995;27;45161;-69
2023/07/26 01:23:47;;;;;;;4.60;1.85;;;14.20;99.90;;;;;;5110329;27;45384;-70
2023/07/26 01:26:14;;;;;;;10.20;2.10;;;14.20;99.90;;;;;;5105615;27;45427;-70
2023/07/26 01:28:41;;;;;;;10.30;2.08;;;14.20;99.90;;;;;;5104445;27;45411;-69
2023/07/26 01:31:10;;;;;;;9.32;1.90;;;14.30;99.90;;;;;;5108267;27;45302;-70
2023/07/26 01:33:38;;;;;;;5.88;2.00;;;14.30;99.90;;;;;;5110821;27;45444;-69
2023/07/26 01:36:06;;;;;;;11.77;1.60;;;14.30;99.90;;;;;;5105891;27;47334;-69
2023/07/26 01:38:33;;;;;;;11.25;2.00;;;14.20;99.90;;;;;;5113151;27;45137;-69
2023/07/26 01:41:02;;;;;;;8.50;1.63;;;14.20;99.90;;;;;;5103126;27;45252;-69
2023/07/26 01:43:29;;;;;;;11.85;2.45;;;14.20;99.90;;;;;;5103007;27;45204;-70
2023/07/26 01:45:56;;;;;;;9.75;2.30;;;14.20;99.90;;;;;;5103122;27;46293;-69
2023/07/26 01:48:23;;;;;;;11.15;2.22;;;14.00;99.90;;;;;;5102662;27;45212;-70
2023/07/26 01:50:49;;;;;;;3.22;2.10;;;14.00;99.90;;;;;;5114757;27;45480;-69
2023/07/26 01:53:16;;;;;;;8.30;2.08;;;14.00;99.90;;;;;;5107200;27;45343;-69
2023/07/26 01:55:43;;;;;;;2.35;1.48;;;14.00;99.90;;;;;;5110609;27;47096;-69
2023/07/26 01:58:11;;;;;;;7.80;2.40;;;14.00;99.90;;;;;;5108017;27;45207;-69
2023/07/26 02:00:39;;;;;;;14.60;2.15;;;14.00;99.90;;;;;;5102887;27;45219;-69
2023/07/26 02:03:06;;;;;;;6.50;2.22;;;14.10;99.90;;;;;;5110977;27;45330;-70
2023/07/26 02:05:33;;;;;;;8.75;2.03;;;14.00;99.90;;;;;;5105524;27;46659;-70
2023/07/26 02:07:59;;;;;;;8.77;2.25;;;14.00;99.90;;;;;;5108853;27;45636;-69
2023/07/26 02:10:26;;;;;;;4.78;1.95;;;14.00;99.90;;;;;;5108453;27;45185;-69
2023/07/26 02:12:53;;;;;;;5.93;2.20;;;14.00;99.90;;;;;;5108206;27;45534;-70
2023/07/26 02:15:21;;;;;;;12.00;2.33;;;14.10;99.90;;;;;;5111132;27;45181;-69
2023/07/26 02:17:48;;;;;;;5.60;2.40;;;14.00;99.90;;;;;;5105098;27;45290;-70
2023/07/26 02:20:15;;;;;;;4.78;2.00;;;14.00;99.90;;;;;;5114622;27;45396;-70
2023/07/26 02:22:41;;;;;;;7.40;2.42;;;14.00;99.90;;;;;;5106590;27;45273;-70
2023/07/26 02:25:09;;;;;;;6.38;2.13;;;14.10;99.90;;;;;;5108047;27;47143;-69
2023/07/26 02:27:35;;;;;;;8.93;2.22;;;14.00;99.90;;;;;;5104215;27;45264;-69
2023/07/26 02:30:02;;;;;;;9.90;2.20;;;14.00;99.90;;;;;;5111164;27;45213;-70
2023/07/26 02:32:30;;;;;;;9.48;2.30;;;14.00;99.90;;;;;;5108662;27;45295;-69
2023/07/26 02:34:57;;;;;;;13.30;2.10;;;14.00;99.90;;;;;;5107745;27;47015;-69
2023/07/26 02:37:24;;;;;;;5.65;2.10;;;14.00;99.90;;;;;;5110886;27;45352;-69
2023/07/26 02:39:51;;;;;;;6.13;2.13;;;14.00;99.90;;;;;;5122996;27;45448;-69
2023/07/26 02:42:19;;;;;;;16.60;2.60;;;14.00;99.90;;;;;;5114314;27;45164;-70
2023/07/26 02:44:46;;;;;;;14.18;2.10;;;14.10;99.90;;;;;;5120338;27;45242;-70
2023/07/26 02:47:13;;;;;;;9.80;2.08;;;14.00;99.90;;;;;;5111347;27;45072;-70
2023/07/26 02:49:41;;;;;;;8.98;1.73;;;13.90;99.90;;;;;;5105427;27;45254;-69
2023/07/26 02:52:08;;;;;;;10.95;2.30;;;13.90;99.90;;;;;;5108305;27;45262;-69
2023/07/26 02:54:35;;;;;;;10.15;2.42;;;13.90;99.90;;;;;;5113416;27;46209;-70
2023/07/26 02:57:01;;;;;;;8.45;2.13;;;13.90;99.90;;;;;;5104801;27;46163;-70
2023/07/26 02:59:28;;;;;;;11.25;2.10;;;13.90;99.90;;;;;;5104325;27;45327;-69
2023/07/26 03:01:55;;;;;;;7.65;2.20;;;13.90;99.90;;;;;;5104754;27;45249;-70
2023/07/26 03:04:22;;;;;;;9.50;2.08;;;14.00;99.90;;;;;;5105316;27;46327;-69
2023/07/26 03:06:51;;;;;;;10.95;2.15;;;13.90;99.90;;;;;;5106988;27;45170;-69
2023/07/26 03:09:18;;;;;;;9.77;2.22;;;13.90;99.90;;;;;;5100061;27;45145;-69
2023/07/26 03:11:45;;;;;;;5.25;1.90;;;14.00;99.90;;;;;;5104568;27;45419;-70
2023/07/26 03:14:12;;;;;;;17.80;2.72;;;14.00;99.90;;;;;;5109059;27;46408;-70
2023/07/26 03:16:38;;;;;;;15.23;2.35;;;14.00;99.90;;;;;;5112403;27;46430;-69
2023/07/26 03:19:05;;;;;;;9.95;2.08;;;14.10;99.90;;;;;;5118875;27;45284;-70
2023/07/26 03:21:32;;;;;;;8.57;2.15;;;14.20;99.90;;;;;;5113115;27;45122;-69
2023/07/26 03:24:00;;;;;;;7.90;1.92;;;14.30;99.90;;;;;;5111568;27;46071;-70
2023/07/26 03:26:27;;;;;;;4.28;2.17;;;14.30;99.90;;;;;;5111935;27;46609;-69
2023/07/26 03:28:54;;;;;;;7.18;2.47;;;14.50;99.90;;;;;;5110080;27;45267;-70
2023/07/26 03:31:20;;;;;;;13.23;2.63;;;15.80;99.90;;;;;;5104898;27;45399;-70
2023/07/26 03:33:47;;;;;;;9.95;3.15;;;16.50;99.90;;;;;;5100385;27;46220;-70
2023/07/26 03:36:14;;;;;;;18.10;2.72;;;16.60;99.90;;;;;;5116078;27;45224;-70
2023/07/26 03:38:41;;;;;;;8.50;2.55;;;16.50;99.90;;;;;;5109729;27;45337;-70
2023/07/26 03:41:09;;;;;;;10.88;3.05;;;16.20;99.90;;;;;;5106372;27;45495;-70
2023/07/26 03:43:36;;;;;;;8.60;2.78;;;15.60;99.90;;;;;;5106890;27;46216;-69
2023/07/26 03:46:02;;;;;;;20.08;3.63;;;15.50;99.90;;;;;;5105227;27;45206;-69
2023/07/26 03:48:29;;;;;;;11.15;3.00;;;15.30;99.90;;;;;;5104907;27;45283;-69
2023/07/26 03:50:56;;;;;;;8.35;2.47;;;15.50;99.90;;;;;;5102227;27;45308;-69
2023/07/26 03:53:23;;;;;;;6.43;2.55;;;15.90;99.90;;;;;;5113310;27;45185;-69
2023/07/26 03:55:49;;;;;;;5.10;2.28;;;16.20;99.90;;;;;;5104267;27;45174;-69
2023/07/26 03:58:19;;;;;;;3.92;2.08;;;16.30;99.90;;;;;;5108124;27;45430;-69
2023/07/26 04:00:45;;;;;;;6.45;2.60;;;16.40;99.90;;;;;;5105236;27;45207;-69
2023/07/26 04:03:12;;;;;;;7.03;2.40;;;16.60;99.90;;;;;;5101210;27;45358;-69
2023/07/26 04:05:39;;;;;;;2.95;1.85;;;16.70;99.90;;;;;;5104453;27;45134;-69
2023/07/26 04:08:06;;;;;;;2.50;1.85;;;16.80;99.90;;;;;;5106734;27;45224;-69
2023/07/26 04:10:34;;;;;;;4.47;1.90;;;16.80;99.90;;;;;;5109648;27;45160;-69
2023/07/26 04:13:01;;;;;;;2.35;1.67;;;16.90;99.90;;;;;;5106642;27;47047;-69
2023/07/26 04:15:29;;;;;;;5.70;1.73;;;16.90;99.90;;;;;;5103610;27;45220;-70
2023/07/26 04:17:56;;;;;;;3.60;1.77;;;16.80;99.90;;;;;;5089760;27;45309;-69
2023/07/26 04:20:23;;;;;;;2.15;1.30;;;16.80;99.90;;;;;;5099293;27;45239;-71
2023/07/26 04:22:50;;;;;;;3.75;1.50;;;16.80;99.90;;;;;;5086669;27;45313;-69
2023/07/26 04:25:17;;;;;;;2.95;1.50;;;16.80;99.90;;;;;;5103477;27;45208;-69
2023/07/26 04:27:44;;;;;;;3.03;1.60;;;16.80;99.90;;;;;;5105239;27;45239;-69
2023/07/26 04:30:11;;;;;;;2.72;1.50;;;16.90;99.90;;;;;;5102405;27;45273;-70
2023/07/26 04:32:39;;;;;;;3.38;1.50;;;16.90;99.90;;;;;;5105341;27;45209;-70
2023/07/26 04:35:06;;;;;;;2.63;1.70;;;16.90;99.90;;;;;;5103421;27;45346;-69
2023/07/26 04:37:33;;;;;;;5.47;1.50;;;16.90;99.90;;;;;;5108214;27;45333;-69
2023/07/26 04:40:00;;;;;;;2.53;1.02;;;16.90;99.90;;;;;;5112475;27;45386;-70
2023/07/26 04:42:27;;;;;;;2.97;1.23;;;16.80;99.90;;;;;;5106110;27;46241;-69
2023/07/26 04:44:54;;;;;;;4.93;1.38;;;16.80;99.90;;;;;;5105696;27;45489;-69
2023/07/26 04:47:22;;;;;;;2.15;1.38;;;16.80;99.90;;;;;;5102771;27;45311;-69
2023/07/26 04:49:50;;;;;;;2.05;1.05;;;16.90;99.90;;;;;;5106742;27;45266;-70
2023/07/26 04:52:17;;;;;;;2.38;1.38;;;16.90;99.90;;;;;;5095683;27;46376;-69
2023/07/26 04:54:44;;;;;;;3.05;1.30;;;16.90;99.90;;;;;;5110435;27;45178;-69
2023/07/26 04:57:11;;;;;;;2.50;1.25;;;16.90;99.90;;;;;;5102711;27;45144;-70
2023/07/26 04:59:37;;;;;;;7.57;1.30;;;16.90;99.90;;;;;;5103903;27;45265;-70
2023/07/26 05:02:05;;;;;;;3.00;1.30;;;16.90;99.90;;;;;;5102167;27;48269;-70
2023/07/26 05:04:32;;;;;;;3.10;1.55;;;16.90;99.90;;;;;;5107516;27;45270;-70
2023/07/26 05:07:00;;;;;;;4.88;1.50;;;16.90;99.90;;;;;;5106578;27;45325;-68
2023/07/26 05:09:26;;;;;;;3.22;1.33;;;16.90;99.90;;;;;;5103625;27;45325;-67
2023/07/26 05:11:53;;;;;;;2.13;1.30;;;16.90;99.90;;;;;;5100637;27;46267;-67
2023/07/26 05:14:20;;;;;;;3.72;1.63;;;16.90;99.90;;;;;;5104664;27;45121;-68
2023/07/26 05:16:47;;;;;;;2.78;1.40;;;16.90;99.90;;;;;;5104269;27;45115;-68
2023/07/26 05:19:14;;;;;;;2.10;1.38;;;16.90;99.90;;;;;;5104800;27;45187;-68
2023/07/26 05:21:40;;;;;;;5.13;1.40;;;17.00;99.90;;;;;;5102725;27;47956;-70
2023/07/26 05:24:09;;;;;;;2.92;1.42;;;17.10;99.90;;;;;;5103183;27;45286;-69
2023/07/26 05:26:35;;;;;;;4.18;1.55;;;17.10;99.90;;;;;;5110786;27;45312;-70
2023/07/26 05:29:02;;;;;;;2.95;1.45;;;17.10;99.90;;;;;;5106115;27;45078;-70
2023/07/26 05:31:29;;;;;;;3.65;1.13;;;17.10;99.90;;;;;;5106970;27;46482;-70
2023/07/26 05:33:56;;;;;;;2.38;1.00;;;17.50;99.90;;;;;;5102979;27;45508;-68
2023/07/26 05:36:22;;;;;;;6.45;1.52;;;17.80;99.90;;;;;;5102096;27;45219;-68
2023/07/26 05:38:49;;;;;;;2.88;1.92;;;18.10;99.90;;;;;;5103490;27;45232;-61
2023/07/26 05:41:17;;;;;;;2.42;1.67;;;18.70;99.90;;;;;;5102229;27;45161;-62
2023/07/26 05:43:44;;;;;;;4.15;1.92;;;18.30;99.90;;;;;;5107199;27;45177;-61
2023/07/26 05:46:11;;;;;;;6.43;1.80;;;18.00;99.90;;;;;;5101765;27;45618;-62
2023/07/26 05:48:37;;;;;;;5.55;2.65;;;17.70;99.90;;;;;;5101227;27;45578;-61
2023/07/26 05:51:07;;;;;;;5.55;2.50;;;15.70;99.90;;;;;;5107305;27;47279;-61
2023/07/26 05:53:33;;;;;;;6.03;2.85;;;15.20;99.90;;;;;;5102704;27;45104;-61
2023/07/26 05:56:00;;;;;;;7.90;2.53;;;15.10;99.90;;;;;;5102875;27;45190;-62
2023/07/26 05:58:28;;;;;;;4.88;2.47;;;15.50;99.90;;;;;;5102869;27;45262;-62
2023/07/26 06:00:55;;;;;;;6.00;2.63;;;15.50;99.90;;;;;;5102743;27;47295;-62
2023/07/26 06:03:22;;;;;;;8.25;2.95;;;15.50;99.90;;;;;;5103224;27;45082;-61
2023/07/26 06:05:48;;;;;;;7.72;2.83;;;15.60;99.90;;;;;;5102813;27;45090;-61
2023/07/26 06:08:15;;;;;;;8.77;3.50;;;15.50;99.90;;;;;;5111503;27;45090;-61
2023/07/26 06:10:42;;;;;;;8.35;2.92;;;15.60;99.90;;;;;;5101231;27;46230;-62
2023/07/26 06:13:12;;;;;;;8.55;3.10;;;15.70;99.90;;;;;;5109997;27;45273;-61
2023/07/26 06:15:40;;;;;;;5.93;3.15;;;15.70;99.90;;;;;;5103441;27;45318;-62
2023/07/26 06:18:07;;;;;;;4.63;2.90;;;15.60;99.90;;;;;;5102730;27;45231;-62
2023/07/26 06:20:34;;;;;;;4.50;3.00;;;15.80;99.90;;;;;;5100922;27;46550;-61
2023/07/26 06:23:01;;;;;;;6.00;2.97;;;15.80;99.90;;;;;;5101789;27;45181;-61
2023/07/26 06:25:28;;;;;;;9.43;3.50;;;15.70;99.90;;;;;;5102662;27;45098;-61
2023/07/26 06:27:55;;;;;;;10.98;3.47;;;15.60;99.90;;;;;;5102405;27;45107;-61
2023/07/26 06:30:22;;;;;;;12.80;3.35;;;15.80;99.90;;;;;;5100556;27;46093;-61
2023/07/26 06:32:50;;;;;;;7.10;3.40;;;15.70;99.90;;;;;;5101637;27;45246;-61
2023/07/26 06:35:18;;;;;;;10.13;3.60;;;15.60;99.90;;;;;;5103004;27;45200;-61
2023/07/26 06:37:44;;;;;;;8.60;3.58;;;15.90;99.90;;;;;;5102805;27;45164;-61
2023/07/26 06:40:12;;;;;;;8.27;3.50;;;15.60;99.90;;;;;;5100953;27;45462;-61
2023/07/26 06:42:39;;;;;;;12.30;3.75;;;15.80;99.90;;;;;;5115686;27;46733;-61
2023/07/26 06:45:06;;;;;;;9.82;4.10;;;15.70;99.90;;;;;;5111160;27;45183;-61
2023/07/26 06:47:33;;;;;;;5.68;3.63;;;16.00;99.90;;;;;;5104383;27;45169;-61
2023/07/26 06:50:02;;;;;;;7.35;3.75;;;15.90;99.90;;;;;;5111562;27;47494;-61
2023/07/26 06:52:30;;;;;;;10.18;3.53;;;15.90;99.90;;;;;;5115103;27;45356;-60
2023/07/26 06:54:56;;;;;;;7.70;4.00;;;15.90;99.90;;;;;;5115253;27;45195;-61
2023/07/26 06:57:23;;;;;;;11.35;4.65;;;15.90;99.90;;;;;;5098166;27;45328;-61
2023/07/26 06:59:50;;;;;;;12.57;3.83;;;16.00;99.90;;;;;;5107257;27;47203;-61
2023/07/26 07:02:17;;;;;;;7.95;4.07;;;15.90;99.90;;;;;;5106382;27;45135;-61
2023/07/26 07:04:44;;;;;;;8.90;3.95;;;15.90;99.90;;;;;;5110594;27;45203;-61
2023/07/26 07:07:12;;;;;;;8.07;3.78;;;15.90;99.90;;;;;;5099480;27;45250;-61
2023/07/26 07:09:38;;;;;;;9.70;3.90;;;16.00;99.90;;;;;;5104446;27;46454;-61
2023/07/26 07:12:07;;;;;;;8.50;4.07;;;16.10;99.90;;;;;;5114625;27;45296;-61
2023/07/26 07:14:34;;;;;;;9.18;4.07;;;16.00;99.90;;;;;;5101542;27;45294;-61
2023/07/26 07:17:01;;;;;;;10.95;4.32;;;16.00;99.90;;;;;;5114040;27;45187;-62
2023/07/26 07:19:28;;;;;;;11.55;4.20;;;16.10;99.90;;;;;;5105321;27;46038;-61
2023/07/26 07:21:55;;;;;;;11.35;3.97;;;16.10;99.90;;;;;;5104755;27;45139;-62
2023/07/26 07:24:23;;;;;;;6.90;4.07;;;16.10;99.90;;;;;;5104401;27;45109;-61
2023/07/26 07:26:49;;;;;;;7.82;4.22;;;16.30;99.90;;;;;;5105297;27;45272;-61
2023/07/26 07:29:16;;;;;;;13.20;4.38;;;16.40;99.90;;;;;;5106433;27;46228;-62
2023/07/26 07:31:43;;;;;;;9.77;4.05;;;16.50;99.90;;;;;;5090850;27;45263;-61
2023/07/26 07:34:10;;;;;;;10.88;4.28;;;16.40;99.90;;;;;;5102624;27;45165;-61
2023/07/26 07:36:36;;;;;;;13.48;4.53;;;16.40;99.90;;;;;;5100982;27;45202;-61
2023/07/26 07:39:07;;;;;;;10.95;4.20;;;16.60;99.90;;;;;;5104803;27;45181;-62
2023/07/26 07:41:36;;;;;;;13.65;4.60;;;16.70;99.90;;;;;;5104326;27;45122;-62
2023/07/26 07:44:03;;;;;;;11.32;4.80;;;16.80;99.90;;;;;;5105506;27;45244;-61
2023/07/26 07:46:30;;;;;;;10.23;4.88;;;16.70;99.90;;;;;;5105206;27;45279;-61
2023/07/26 07:48:57;;;;;;;12.85;4.95;;;16.70;99.90;;;;;;5104621;27;47450;-62
2023/07/26 07:51:23;;;;;;;10.40;4.57;;;16.70;99.90;;;;;;5103589;27;45623;-61
2023/07/26 07:53:50;;;;;;;8.88;4.65;;;16.80;99.90;;;;;;5104049;27;45161;-61
2023/07/26 07:56:17;;;;;;;8.25;4.15;;;16.90;99.90;;;;;;5117058;27;45330;-61
2023/07/26 07:58:45;;;;;;;12.30;4.75;;;17.00;99.90;;;;;;5111163;27;46196;-61
2023/07/26 08:01:12;;;;;;;10.82;4.70;;;17.20;99.90;;;;;;5102068;27;45187;-61
2023/07/26 08:03:39;;;;;;;9.85;4.60;;;17.30;99.90;;;;;;5104326;27;45193;-61
2023/07/26 08:06:06;;;;;;;9.93;4.40;;;17.30;99.90;;;;;;5102940;27;45275;-61
2023/07/26 08:08:33;;;;;;;9.65;4.78;;;17.30;99.90;;;;;;5104103;27;45161;-62
2023/07/26 08:10:59;;;;;;;9.30;5.00;;;17.70;99.90;;;;;;5106049;27;45253;-61
2023/07/26 08:13:26;;;;;;;12.68;4.38;;;17.70;99.90;;;;;;5105559;27;45388;-61
2023/07/26 08:15:57;;;;;;;13.13;4.60;;;18.30;99.90;;;;;;5104543;27;45167;-61
2023/07/26 08:18:24;;;;;;;12.38;4.22;;;17.90;99.90;;;;;;5104458;27;45172;-61
2023/07/26 08:20:51;;;;;;;15.93;4.53;;;18.40;99.90;;;;;;5103802;27;45130;-61
2023/07/26 08:23:18;;;;;;;8.68;3.75;;;18.00;99.90;;;;;;5106564;27;45398;-61
2023/07/26 08:25:44;;;;;;;11.05;4.30;;;18.10;99.90;;;;;;5104663;27;45225;-62
2023/07/26 08:28:11;;;;;;;5.05;2.50;;;17.80;99.90;;;;;;5104142;27;47294;-61
2023/07/26 08:30:38;;;;;;;17.92;4.32;;;18.40;99.90;;;;;;5107853;27;45704;-61
2023/07/26 08:33:06;;;;;;;8.38;3.45;;;18.00;99.90;;;;;;5106123;27;45212;-61
2023/07/26 08:35:33;;;;;;;13.90;3.67;;;18.00;99.90;;;;;;5104220;27;45181;-61
2023/07/26 08:38:00;;;;;;;11.30;3.95;;;17.90;99.90;;;;;;5103873;27;46285;-62
2023/07/26 08:40:27;;;;;;;8.57;3.67;;;17.70;99.90;;;;;;5101739;27;45213;-61
2023/07/26 08:42:56;;;;;;;9.90;4.13;;;18.00;99.90;;;;;;5104115;27;45189;-61
2023/07/26 08:45:24;;;;;;;8.48;3.90;;;17.80;99.90;;;;;;5104692;27;45466;-62
2023/07/26 08:47:53;;;;;;;9.77;3.90;;;17.70;99.90;;;;;;5112082;27;45308;-62
2023/07/26 08:50:21;;;;;;;11.15;4.38;;;17.90;99.90;;;;;;5104139;27;45359;-61
2023/07/26 08:52:48;;;;;;;16.58;3.80;;;18.00;99.90;;;;;;5103899;27;45298;-61
2023/07/26 08:55:17;;;;;;;7.93;3.80;;;18.00;99.90;;;;;;5103894;27;45190;-61
2023/07/26 08:57:44;;;;;;;11.23;4.22;;;18.20;99.90;;;;;;5103667;27;47190;-61
2023/07/26 09:00:12;;;;;;;15.25;4.35;;;18.20;99.90;;;;;;5101794;27;46223;-61
2023/07/26 09:02:42;;;;;;;8.68;3.72;;;18.30;99.90;;;;;;5103430;27;45383;-61
2023/07/26 09:05:10;;;;;;;12.98;3.80;;;18.10;99.90;;;;;;5111231;27;45397;-61
2023/07/26 09:07:39;;;;;;;8.88;3.40;;;18.20;99.90;;;;;;5108434;27;47470;-62
2023/07/26 09:10:06;;;;;;;9.45;3.75;;;18.30;99.90;;;;;;5111309;27;45149;-61
2023/07/26 09:12:33;;;;;;;10.70;3.72;;;18.30;99.90;;;;;;5103155;27;45393;-61
2023/07/26 09:15:04;;;;;;;10.93;3.40;;;18.30;99.90;;;;;;5105567;27;45300;-61
2023/07/26 09:17:39;;;;;;;8.25;2.85;;;18.30;99.90;;;;;;5100563;27;47644;-61
2023/07/26 09:20:18;;;;;;;11.10;3.65;;;18.30;99.90;;;;;;5111259;27;46126;-62
2023/07/26 09:22:46;;;;;;;10.57;3.75;;;18.20;99.90;;;;;;5107291;27;45122;-62
2023/07/26 09:25:13;;;;;;;9.75;3.60;;;18.30;99.90;;;;;;5103405;27;45348;-61
2023/07/26 09:27:53;;;;;;;12.32;3.70;;;18.20;99.90;;;;;;5106259;27;46314;-61
2023/07/26 09:30:21;;;;;;;8.05;3.13;;;18.20;99.90;;;;;;5107853;27;45932;-62
2023/07/26 09:32:49;;;;;;;8.88;3.50;;;18.20;99.90;;;;;;5108843;27;45263;-62
2023/07/26 09:35:16;;;;;;;8.10;3.80;;;18.20;99.90;;;;;;5102747;27;45470;-61
2023/07/26 09:37:43;;;;;;;11.30;3.55;;;18.30;99.90;;;;;;5102649;27;45118;-61
2023/07/26 09:40:12;;;;;;;11.50;3.45;;;18.30;99.90;;;;;;5102560;27;45114;-62
2023/07/26 09:42:43;;;;;;;8.77;3.40;;;18.30;99.90;;;;;;5105300;27;45217;-61
2023/07/26 09:45:14;;;;;;;8.75;3.10;;;18.40;99.90;;;;;;5105259;27;45410;-61
2023/07/26 09:47:41;;;;;;;7.00;3.00;;;18.40;99.90;;;;;;5098776;27;46545;-61
2023/07/26 09:50:23;;;;;;;7.18;3.13;;;18.40;99.90;;;;;;5100337;27;45272;-61
2023/07/26 09:52:51;;;;;;;9.45;2.85;;;18.50;99.90;;;;;;5112696;27;45269;-61
2023/07/26 09:55:19;;;;;;;7.75;3.03;;;18.50;99.90;;;;;;5108918;27;45397;-61
2023/07/26 09:57:47;;;;;;;6.43;2.58;;;18.50;99.90;;;;;;5107426;27;46825;-62
2023/07/26 10:00:15;;;;;;;8.15;2.40;;;18.40;99.90;;;;;;5088482;27;45218;-61
2023/07/26 10:02:44;;;;;;;5.57;2.13;;;18.50;99.90;;;;;;5110646;27;45121;-61
2023/07/26 10:05:16;;;;;;;7.53;2.17;;;18.50;99.90;;;;;;5092647;27;45396;-61
2023/07/26 10:07:44;;;;;;;4.15;1.95;;;18.70;99.90;;;;;;5104370;27;46185;-61
2023/07/26 10:10:12;;;;;;;6.20;2.50;;;18.90;99.90;;;;;;5097993;27;45203;-62
2023/07/26 10:12:43;;;;;;;7.88;3.22;;;18.90;99.90;;;;;;5101595;27;45233;-61
2023/07/26 10:15:10;;;;;;;6.50;3.72;;;18.90;99.90;;;;;;5102481;27;45307;-61
2023/07/26 10:17:39;;;;;;;6.15;3.35;;;18.90;99.90;;;;;;5105064;27;47467;-62
2023/07/26 10:20:09;;;;;;;15.05;4.82;;;18.80;99.90;;;;;;5101535;27;45061;-62
2023/07/26 10:22:37;;;;;;;32.22;7.43;;;18.30;99.90;;;;;;5105871;27;45227;-61
2023/07/26 10:25:04;;;;;;;13.55;4.10;;;17.50;99.90;;;;;;5103274;27;45267;-62
2023/07/26 10:27:31;;;;;;;8.55;3.28;;;17.50;99.90;;;;;;5109140;27;46695;-62
2023/07/26 10:29:59;;;;;;;4.95;2.47;;;17.30;99.90;;;;;;5105057;27;46398;-62
2023/07/26 10:32:26;;;;;;;4.18;2.13;;;16.80;99.90;;;;;;5106094;27;45171;-61
2023/07/26 10:34:56;;;;;;;9.93;2.33;;;16.70;99.90;;;;;;5106230;27;45110;-62
2023/07/26 10:37:23;;;;;;;9.35;2.65;;;16.80;99.90;;;;;;5104472;27;46362;-62
2023/07/26 10:39:51;;;;;;;5.22;2.88;;;16.90;99.90;;;;;;5103420;27;45321;-62
2023/07/26 10:42:25;;;;;;;7.05;3.08;;;16.90;99.90;;;;;;5105460;27;45255;-61
2023/07/26 10:44:53;;;;;;;7.68;2.65;;;17.00;99.90;;;;;;5106172;27;45248;-62
2023/07/26 10:47:21;;;;;;;4.70;2.63;;;17.10;99.90;;;;;;5104405;27;47086;-61
2023/07/26 10:49:48;;;;;;;6.03;2.75;;;17.10;99.90;;;;;;5109905;27;45258;-61
2023/07/26 10:52:15;;;;;;;6.53;2.83;;;17.20;99.90;;;;;;5111238;27;45129;-61
2023/07/26 10:54:44;;;;;;;6.90;3.65;;;17.30;99.90;;;;;;5105085;27;45287;-61
2023/07/26 10:57:19;;;;;;;5.63;2.80;;;17.40;99.90;;;;;;5099172;27;45406;-61
2023/07/26 10:59:56;;;;;;;5.13;2.53;;;17.50;99.90;;;;;;5103291;27;46226;-61
2023/07/26 11:02:39;;;;;;;5.93;2.88;;;17.50;99.90;;;;;;5087985;27;45440;-61
2023/07/26 11:05:12;;;;;;;5.13;2.60;;;17.50;99.90;;;;;;5082502;27;45109;-61
2023/07/26 11:07:52;;;;;;;4.53;2.70;;;17.50;99.90;;;;;;5085134;28;46288;-61
2023/07/26 11:10:21;;;;;;;3.95;2.88;;;17.50;99.90;;;;;;5078973;27;45208;-62
2023/07/26 11:12:50;;;;;;;4.38;2.95;;;17.50;99.90;;;;;;5082115;27;45346;-62
2023/07/26 11:15:27;;;;;;;5.40;3.15;;;17.50;99.90;;;;;;5081167;27;45149;-61
2023/07/26 11:17:55;;;;;;;7.80;3.50;;;17.50;99.90;;;;;;5085047;28;45227;-61
2023/07/26 11:20:22;;;;;;;10.82;3.78;;;17.50;99.90;;;;;;5079764;27;45192;-62
2023/07/26 11:22:49;;;;;;;8.38;3.70;;;17.60;99.90;;;;;;5081705;27;45145;-61
2023/07/26 11:25:16;;;;;;;8.65;3.58;;;17.60;99.90;;;;;;5078429;27;45095;-62
2023/07/26 11:27:44;;;;;;;5.75;3.78;;;17.70;99.90;;;;;;5078428;27;45387;-62
2023/07/26 11:30:15;;;;;;;7.03;4.10;;;17.70;99.90;;;;;;5083402;27;45341;-61
2023/07/26 11:32:44;;;;;;;5.22;3.65;;;17.60;99.90;;;;;;5081876;27;45213;-62
2023/07/26 11:35:14;;;;;;;5.72;3.90;;;17.70;99.90;;;;;;5083745;27;45399;-62
2023/07/26 11:37:51;;;;;;;6.43;3.88;;;17.80;99.90;;;;;;5082973;27;48055;-62
2023/07/26 11:40:18;;;;;;;6.63;3.67;;;18.10;99.90;;;;;;5083607;27;45124;-61
2023/07/26 11:42:45;;;;;;;6.47;3.22;;;18.20;99.90;;;;;;5086941;27;45317;-62
2023/07/26 11:45:12;;;;;;;6.07;3.03;;;18.20;99.90;;;;;;5082241;27;45349;-61
2023/07/26 11:47:40;;;;;;;4.88;2.70;;;18.40;99.90;;;;;;5075742;27;45585;-61
2023/07/26 11:50:07;;;;;;;6.00;2.72;;;18.30;99.90;;;;;;5080662;27;45187;-61
2023/07/26 11:52:36;;;;;;;6.97;2.53;;;18.20;99.90;;;;;;5082510;27;45295;-61
2023/07/26 11:55:04;;;;;;;5.88;2.92;;;18.40;99.90;;;;;;5086318;27;45358;-61
2023/07/26 11:57:31;;;;;;;3.38;2.42;;;18.50;99.90;;;;;;5074229;28;47989;-62
2023/07/26 12:00:01;;;;;;;2.80;2.00;;;18.70;99.90;;;;;;5082612;28;45259;-61
2023/07/26 12:02:29;;;;;;;8.13;2.45;;;18.80;99.90;;;;;;5101449;27;45107;-61
2023/07/26 12:05:15;;;;;;;5.47;2.30;;;18.80;99.90;;;;;;5119111;27;45160;-61
2023/07/26 12:07:47;;;;;;;4.10;2.33;;;18.80;99.90;;;;;;5098060;27;45288;-61
2023/07/26 12:10:13;;;;;;;5.05;2.47;;;18.80;99.90;;;;;;5103922;27;45970;-61
2023/07/26 12:12:41;;;;;;;3.92;2.22;;;18.80;99.90;;;;;;5104561;27;45183;-61
2023/07/26 12:15:09;;;;;;;6.28;3.25;;;18.90;99.90;;;;;;5104321;27;45975;-61
2023/07/26 12:17:36;;;;;;;5.85;2.53;;;18.80;99.90;;;;;;5112902;27;47296;-62
2023/07/26 12:20:06;;;;;;;9.20;2.75;;;18.70;99.90;;;;;;5103853;27;45297;-61
2023/07/26 12:22:32;;;;;;;8.18;2.70;;;18.60;99.90;;;;;;5096517;27;45247;-61
2023/07/26 12:25:02;;;;;;;7.15;2.40;;;18.70;99.90;;;;;;5102695;27;45567;-62
2023/07/26 12:27:34;;;;;;;4.88;2.20;;;18.80;99.90;;;;;;5098007;27;46592;-62
2023/07/26 12:30:00;;;;;;;7.03;2.85;;;18.90;99.90;;;;;;5109307;27;45279;-62
2023/07/26 12:32:27;;;;;;;4.68;2.60;;;19.10;99.90;;;;;;5110617;27;45299;-61
2023/07/26 12:34:54;;;;;;;7.30;2.35;;;19.20;99.90;;;;;;5106407;27;45204;-62
2023/07/26 12:37:30;;;;;;;5.35;2.47;;;19.30;99.90;;;;;;5110239;27;45331;-61
2023/07/26 12:39:57;;;;;;;5.47;2.80;;;19.30;99.90;;;;;;5100873;27;45187;-61
2023/07/26 12:42:25;;;;;;;7.25;3.22;;;19.30;99.90;;;;;;5118644;27;45298;-62
2023/07/26 12:44:53;;;;;;;5.78;2.80;;;19.10;99.90;;;;;;5113390;27;45211;-61
2023/07/26 12:47:19;;;;;;;5.50;2.83;;;19.10;99.90;;;;;;5105538;27;47514;-61
2023/07/26 12:49:46;;;;;;;4.15;2.38;;;19.10;99.90;;;;;;5100422;27;45241;-61